createdAt,value
2022-08-05T00:02:11.618Z,56.33
2022-08-05T00:04:40.263Z,56.33
2022-08-05T00:07:26.753Z,56.24
2022-08-05T00:09:54.630Z,56.57
2022-08-05T00:12:21.626Z,56.62
2022-08-05T00:14:51.752Z,56.99
2022-08-05T00:17:19.548Z,57.03
2022-08-05T00:20:02.026Z,57.15
2022-08-05T00:22:31.045Z,57.39
2022-08-05T00:24:57.911Z,57.46
2022-08-05T00:27:36.461Z,57.91
2022-08-05T00:30:04.711Z,58.29
2022-08-05T00:32:31.582Z,58.47
2022-08-05T00:35:06.862Z,58.87
2022-08-05T00:37:51.057Z,59.03
2022-08-05T00:40:27.467Z,59.25
2022-08-05T00:42:59.598Z,59.07
2022-08-05T00:45:38.822Z,58.97
2022-08-05T00:48:13.285Z,59.22
2022-08-05T00:50:41.902Z,59.04
2022-08-05T00:54:00.362Z,58.86
2022-08-05T00:55:57.971Z,59.41
2022-08-05T00:58:27.485Z,59.54
2022-08-05T01:00:54.631Z,59.38
2022-08-05T01:03:22.498Z,59.26
2022-08-05T01:05:51.220Z,59.43
2022-08-05T01:08:41.598Z,59.55
2022-08-05T01:11:13.642Z,59.48
2022-08-05T01:13:58.471Z,59.76
2022-08-05T01:16:34.995Z,59.59
2022-08-05T01:19:07.255Z,59.80
2022-08-05T01:21:51.753Z,59.50
2022-08-05T01:24:20.704Z,59.74
2022-08-05T01:27:24.334Z,59.69
2022-08-05T01:29:53.202Z,60.13
2022-08-05T01:32:22.945Z,59.98
2022-08-05T01:34:57.694Z,60.26
2022-08-05T01:37:27.344Z,60.47
2022-08-05T01:39:58.709Z,60.71
2022-08-05T01:42:26.988Z,60.71
2022-08-05T01:44:54.841Z,61.01
2022-08-05T01:47:22.279Z,61.02
2022-08-05T01:50:01.721Z,60.85
2022-08-05T01:52:30.899Z,60.97
2022-08-05T01:55:00.493Z,61.00
2022-08-05T01:58:13.738Z,61.08
2022-08-05T02:00:30.644Z,61.28
2022-08-05T02:02:58.487Z,61.30
2022-08-05T02:05:25.815Z,61.24
2022-08-05T02:07:59.976Z,61.21
2022-08-05T02:10:29.734Z,61.04
2022-08-05T02:13:19.467Z,61.09
2022-08-05T02:15:54.521Z,61.11
2022-08-05T02:21:13.275Z,60.99
2022-08-05T02:23:43.099Z,61.00
2022-08-05T02:26:10.536Z,61.30
2022-08-05T02:28:41.682Z,61.43
2022-08-05T02:31:21.133Z,61.12
2022-08-05T02:33:57.712Z,61.15
2022-08-05T02:36:27.936Z,61.10
2022-08-05T02:38:58.886Z,60.86
2022-08-05T02:41:28.969Z,60.73
2022-08-05T02:44:11.163Z,60.86
2022-08-05T02:46:58.360Z,60.94
2022-08-05T02:49:36.179Z,61.04
2022-08-05T02:52:06.210Z,61.24
2022-08-05T02:54:37.251Z,61.17
2022-08-05T02:57:10.124Z,61.07
2022-08-05T02:59:58.102Z,61.47
2022-08-05T03:02:30.778Z,61.28
2022-08-05T03:04:58.079Z,61.16
2022-08-05T03:08:01.930Z,61.24
2022-08-05T03:10:24.387Z,61.33
2022-08-05T03:12:52.711Z,61.12
2022-08-05T03:15:19.571Z,61.22
2022-08-05T03:17:46.342Z,61.23
2022-08-05T03:20:13.724Z,61.43
2022-08-05T03:22:46.927Z,60.99
2022-08-05T03:26:03.741Z,61.32
2022-08-05T03:28:06.367Z,61.25
2022-08-05T03:30:44.409Z,61.33
2022-08-05T03:33:14.068Z,61.05
2022-08-05T03:35:41.997Z,61.34
2022-08-05T03:38:12.395Z,61.01
2022-08-05T03:40:47.515Z,60.90
2022-08-05T03:44:09.871Z,60.75
2022-08-05T03:46:04.389Z,60.62
2022-08-05T03:48:35.602Z,60.66
2022-08-05T03:52:38.611Z,60.78
2022-08-05T03:55:51.690Z,60.52
2022-08-05T03:56:58.966Z,60.20
2022-08-05T03:59:47.065Z,60.49
2022-08-05T04:02:37.677Z,60.29
2022-08-05T04:05:09.694Z,60.33
2022-08-05T04:07:57.165Z,60.26
2022-08-05T04:10:24.804Z,60.10
2022-08-05T04:12:55.200Z,60.06
2022-08-05T04:15:24.549Z,60.10
2022-08-05T04:17:56.601Z,60.39
2022-08-05T04:20:24.389Z,60.26
2022-08-05T04:22:51.144Z,60.00
2022-08-05T04:25:18.228Z,59.95
2022-08-05T04:27:58.115Z,59.74
2022-08-05T04:30:26.695Z,59.57
2022-08-05T04:32:53.643Z,59.78
2022-08-05T04:35:20.420Z,59.56
2022-08-05T04:38:02.438Z,59.61
2022-08-05T04:40:34.980Z,59.17
2022-08-05T04:43:02.276Z,59.24
2022-08-05T04:45:47.812Z,59.24
2022-08-05T04:48:27.973Z,59.22
2022-08-05T04:51:02.716Z,58.96
2022-08-05T04:53:38.759Z,58.84
2022-08-05T04:56:34.017Z,58.65
2022-08-05T04:58:55.892Z,58.29
2022-08-05T05:01:33.842Z,57.62
2022-08-05T05:04:10.247Z,57.45
2022-08-05T05:06:44.892Z,56.90
2022-08-05T05:09:18.993Z,56.76
2022-08-05T05:11:54.306Z,56.15
2022-08-05T05:14:31.217Z,55.48
2022-08-05T05:17:01.730Z,55.04
2022-08-05T05:19:37.126Z,54.37
2022-08-05T05:22:23.653Z,54.01
2022-08-05T05:24:58.091Z,53.59
2022-08-05T05:27:41.245Z,53.34
2022-08-05T05:30:15.701Z,52.93
2022-08-05T05:33:00.986Z,52.64
2022-08-05T05:35:34.307Z,52.10
2022-08-05T05:38:08.908Z,51.66
2022-08-05T05:40:36.454Z,51.60
2022-08-05T05:43:03.267Z,51.10
2022-08-05T05:45:30.181Z,51.19
2022-08-05T05:48:06.424Z,50.49
2022-08-05T05:50:41.252Z,50.39
2022-08-05T05:53:21.424Z,49.72
2022-08-05T05:55:52.294Z,49.59
2022-08-05T05:58:30.209Z,48.94
2022-08-05T06:01:12.237Z,48.33
2022-08-05T06:04:00.647Z,48.06
2022-08-05T06:06:31.067Z,47.74
2022-08-05T06:09:03.949Z,47.32
2022-08-05T06:11:31.809Z,46.86
2022-08-05T06:14:00.367Z,47.05
2022-08-05T06:16:36.942Z,46.56
2022-08-05T06:21:49.719Z,46.16
2022-08-05T06:24:17.679Z,46.11
2022-08-05T06:26:56.325Z,45.34
2022-08-05T06:29:48.914Z,45.33
2022-08-05T06:32:21.419Z,45.18
2022-08-05T06:34:53.563Z,45.08
2022-08-05T06:37:58.326Z,45.41
2022-08-05T06:40:10.718Z,44.99
2022-08-05T06:42:39.756Z,45.17
2022-08-05T06:45:08.847Z,44.89
2022-08-05T06:48:47.377Z,44.83
2022-08-05T06:50:23.840Z,44.34
2022-08-05T06:53:03.521Z,43.83
2022-08-05T06:55:37.611Z,43.26
2022-08-05T06:58:30.203Z,42.07
2022-08-05T07:00:51.798Z,42.22
2022-08-05T07:03:18.728Z,41.97
2022-08-05T07:05:46.217Z,40.98
2022-08-05T07:08:16.477Z,41.62
2022-08-05T07:10:52.271Z,41.16
2022-08-05T07:13:57.897Z,41.44
2022-08-05T07:18:02.206Z,41.72
2022-08-05T07:20:29.834Z,41.65
2022-08-05T07:22:22.157Z,40.83
2022-08-05T07:24:56.693Z,41.17
2022-08-05T07:27:27.684Z,41.12
2022-08-05T07:30:24.621Z,40.42
2022-08-05T07:32:57.536Z,40.61
2022-08-05T07:35:56.019Z,40.52
2022-08-05T07:38:12.417Z,39.78
2022-08-05T07:40:55.659Z,39.85
2022-08-05T07:43:28.611Z,39.07
2022-08-05T07:45:58.989Z,39.02
2022-08-05T07:49:02.475Z,39.21
2022-08-05T07:51:36.038Z,38.79
2022-08-05T07:54:05.257Z,38.20
2022-08-05T07:57:02.611Z,37.79
2022-08-05T07:59:23.239Z,37.83
2022-08-05T08:01:58.541Z,37.51
2022-08-05T08:04:37.911Z,37.73
2022-08-05T08:07:07.551Z,37.32
2022-08-05T08:09:37.507Z,37.26
2022-08-05T08:12:14.318Z,37.46
2022-08-05T08:14:47.114Z,37.00
2022-08-05T08:17:16.001Z,36.94
2022-08-05T08:20:21.548Z,36.53
2022-08-05T08:22:31.010Z,36.02
2022-08-05T08:25:03.270Z,35.46
2022-08-05T08:27:40.429Z,35.19
2022-08-05T08:30:29.976Z,34.24
2022-08-05T08:33:04.605Z,33.41
2022-08-05T08:35:41.472Z,32.81
2022-08-05T08:38:35.913Z,32.73
2022-08-05T08:41:05.642Z,32.31
2022-08-05T08:45:24.099Z,32.52
2022-08-05T08:46:21.061Z,31.93
2022-08-05T08:49:06.229Z,31.31
2022-08-05T08:52:02.850Z,31.75
2022-08-05T08:54:27.247Z,31.11
2022-08-05T08:56:56.564Z,31.45
2022-08-05T08:59:27.752Z,31.06
2022-08-05T09:02:05.970Z,30.31
2022-08-05T09:04:58.178Z,30.09
2022-08-05T09:07:28.845Z,29.91
2022-08-05T09:09:56.549Z,29.36
2022-08-05T09:12:27.755Z,29.15
2022-08-05T09:15:03.968Z,28.31
2022-08-05T09:17:41.417Z,28.16
2022-08-05T09:20:10.685Z,28.67
2022-08-05T09:22:56.261Z,28.12
2022-08-05T09:26:01.831Z,27.76
2022-08-05T09:28:31.503Z,27.94
2022-08-05T09:31:43.286Z,27.55
2022-08-05T09:33:53.263Z,27.26
2022-08-05T09:36:20.512Z,27.25
2022-08-05T09:38:56.568Z,27.29
2022-08-05T09:41:24.101Z,26.70
2022-08-05T09:43:55.991Z,25.87
2022-08-05T09:46:28.944Z,25.96
2022-08-05T09:49:07.532Z,26.36
2022-08-05T09:51:49.418Z,26.46
2022-08-05T09:54:30.108Z,26.13
2022-08-05T09:57:01.590Z,25.52
2022-08-05T09:59:29.128Z,25.62
2022-08-05T10:02:04.091Z,24.96
2022-08-05T10:04:42.328Z,25.27
2022-08-05T10:07:20.213Z,24.53
2022-08-05T10:10:14.362Z,24.64
2022-08-05T10:12:54.562Z,24.42
2022-08-05T10:15:23.610Z,23.69
2022-08-05T10:18:11.893Z,23.77
2022-08-05T10:20:43.018Z,24.21
2022-08-05T10:23:34.353Z,23.89
2022-08-05T10:26:14.225Z,23.88
2022-08-05T10:28:42.922Z,23.76
2022-08-05T10:32:54.909Z,23.51
2022-08-05T10:33:58.046Z,23.07
2022-08-05T10:36:26.044Z,22.58
2022-08-05T10:38:55.704Z,22.28
2022-08-05T10:41:27.552Z,22.82
2022-08-05T10:44:13.186Z,22.72
2022-08-05T10:46:43.867Z,22.79
2022-08-05T10:49:16.634Z,22.58
2022-08-05T10:52:00.468Z,22.99
2022-08-05T10:54:47.111Z,23.09
2022-08-05T10:57:32.348Z,23.01
2022-08-05T11:00:19.573Z,22.64
2022-08-05T11:03:23.284Z,22.56
2022-08-05T11:06:03.809Z,23.16
2022-08-05T11:08:39.125Z,22.20
2022-08-05T11:11:52.935Z,22.82
2022-08-05T11:15:01.128Z,23.65
2022-08-05T11:17:59.689Z,25.37
2022-08-05T11:20:34.687Z,24.23
2022-08-05T11:23:10.564Z,24.44
2022-08-05T11:26:05.630Z,24.82
2022-08-05T11:28:28.335Z,25.93
2022-08-05T11:30:58.770Z,25.54
2022-08-05T11:33:43.965Z,24.25
2022-08-05T11:36:14.808Z,23.72
2022-08-05T11:38:45.915Z,22.98
2022-08-05T11:41:56.546Z,23.42
2022-08-05T11:44:08.335Z,24.23
2022-08-05T11:46:35.557Z,24.95
2022-08-05T11:49:03.431Z,23.70
2022-08-05T11:51:49.619Z,22.44
2022-08-05T11:54:33.537Z,21.54
2022-08-05T11:57:07.893Z,20.83
2022-08-05T11:59:50.679Z,20.60
2022-08-05T12:02:23.889Z,20.53
2022-08-05T12:04:59.870Z,20.02
2022-08-05T12:08:09.216Z,20.18
2022-08-05T12:10:17.011Z,19.83
2022-08-05T12:12:58.265Z,19.13
2022-08-05T12:15:33.278Z,19.11
2022-08-05T12:18:10.697Z,19.51
2022-08-05T12:20:39.049Z,18.92
2022-08-05T12:23:09.990Z,20.88
2022-08-05T12:25:57.292Z,21.36
2022-08-05T12:28:42.385Z,20.04
2022-08-05T12:31:23.107Z,19.48
2022-08-05T12:33:50.798Z,20.39
2022-08-05T12:36:30.729Z,21.50
2022-08-05T12:39:01.268Z,22.27
2022-08-05T12:41:34.731Z,21.99
2022-08-05T12:44:02.552Z,21.54
2022-08-05T12:46:31.166Z,20.84
2022-08-05T12:49:01.661Z,21.29
2022-08-05T12:52:14.032Z,19.64
2022-08-05T12:54:35.730Z,18.95
2022-08-05T12:57:10.866Z,18.20
2022-08-05T13:01:56.797Z,19.18
2022-08-05T13:02:35.704Z,18.85
2022-08-05T13:05:06.058Z,18.31
2022-08-05T13:07:59.042Z,18.09
2022-08-05T13:10:20.555Z,18.13
2022-08-05T13:12:57.432Z,18.40
2022-08-05T13:15:41.736Z,17.94
2022-08-05T13:18:20.788Z,18.70
2022-08-05T13:20:49.270Z,17.38
2022-08-05T13:23:18.289Z,16.84
2022-08-05T13:25:51.997Z,16.77
2022-08-05T13:28:28.285Z,17.02
2022-08-05T13:30:55.632Z,19.91
2022-08-05T13:34:22.287Z,20.67
2022-08-05T13:36:14.408Z,22.29
2022-08-05T13:38:42.241Z,23.11
2022-08-05T13:41:11.738Z,23.95
2022-08-05T13:43:45.341Z,24.47
2022-08-05T13:46:44.002Z,25.06
2022-08-05T13:49:11.776Z,25.73
2022-08-05T13:51:40.986Z,25.70
2022-08-05T13:54:15.025Z,25.82
2022-08-05T13:56:51.575Z,26.26
2022-08-05T13:59:21.131Z,26.23
2022-08-05T14:01:58.360Z,26.61
2022-08-05T14:04:51.589Z,27.04
2022-08-05T14:07:25.398Z,27.11
2022-08-05T14:10:08.358Z,26.68
2022-08-05T14:12:35.546Z,26.56
2022-08-05T14:16:05.913Z,26.40
2022-08-05T14:17:49.946Z,26.44
2022-08-05T14:20:18.388Z,24.77
2022-08-05T14:22:50.116Z,24.65
2022-08-05T14:28:26.216Z,24.47
2022-08-05T14:30:57.118Z,22.76
2022-08-05T14:33:24.459Z,21.25
2022-08-05T14:35:53.929Z,21.02
2022-08-05T14:38:32.146Z,20.39
2022-08-05T14:41:05.585Z,19.58
2022-08-05T14:44:02.059Z,20.07
2022-08-05T14:49:09.667Z,19.64
2022-08-05T14:54:28.368Z,19.01
2022-08-05T14:56:57.410Z,19.49
2022-08-05T14:59:25.473Z,19.18
2022-08-05T15:01:56.871Z,19.06
2022-08-05T15:04:27.466Z,19.63
2022-08-05T15:06:56.482Z,19.62
2022-08-05T15:09:54.043Z,20.92
2022-08-05T15:12:16.897Z,20.72
2022-08-05T15:17:47.271Z,20.55
2022-08-05T15:20:19.393Z,20.71
2022-08-05T15:22:54.378Z,20.73
2022-08-05T15:25:23.547Z,20.70
2022-08-05T15:28:08.592Z,21.59
2022-08-05T15:30:40.466Z,21.25
2022-08-05T15:33:07.362Z,21.65
2022-08-05T15:35:36.170Z,21.34
2022-08-05T15:38:35.980Z,21.28
2022-08-05T15:41:22.491Z,21.22
2022-08-05T15:43:47.072Z,21.57
2022-08-05T15:46:14.271Z,21.86
2022-08-05T15:48:52.739Z,21.87
2022-08-05T15:52:09.933Z,22.98
2022-08-05T15:54:16.167Z,24.89
2022-08-05T15:56:43.531Z,26.14
2022-08-05T15:59:22.244Z,26.83
2022-08-05T16:01:52.796Z,27.74
2022-08-05T16:04:21.029Z,28.20
2022-08-05T16:06:54.245Z,28.67
2022-08-05T16:09:23.085Z,28.81
2022-08-05T16:11:53.034Z,29.16
2022-08-05T16:14:21.272Z,29.45
2022-08-05T16:16:49.343Z,29.90
2022-08-05T16:20:03.441Z,30.08
2022-08-05T16:22:06.698Z,30.64
2022-08-05T16:24:40.461Z,30.85
2022-08-05T16:27:09.563Z,30.81
2022-08-05T16:29:37.299Z,31.08
2022-08-05T16:32:09.499Z,30.83
2022-08-05T16:34:42.601Z,31.38
2022-08-05T16:38:03.418Z,31.57
2022-08-05T16:40:04.584Z,32.12
2022-08-05T16:42:34.536Z,32.53
2022-08-05T16:46:02.900Z,32.28
2022-08-05T16:47:53.367Z,32.87
2022-08-05T16:50:25.551Z,32.87
2022-08-05T16:52:52.746Z,33.34
2022-08-05T16:55:23.277Z,33.80
2022-08-05T16:57:53.602Z,33.99
2022-08-05T17:00:34.851Z,34.68
2022-08-05T17:03:15.450Z,35.73
2022-08-05T17:05:51.854Z,35.98
2022-08-05T17:08:35.728Z,36.50
2022-08-05T17:11:16.659Z,36.99
2022-08-05T17:13:44.704Z,37.64
2022-08-05T17:16:33.105Z,37.93
2022-08-05T17:18:58.992Z,38.74
2022-08-05T17:21:35.655Z,38.93
2022-08-05T17:24:30.248Z,39.00
2022-08-05T17:26:57.599Z,39.61
2022-08-05T17:29:33.989Z,40.06
2022-08-05T17:32:11.466Z,40.98
2022-08-05T17:34:47.759Z,41.46
2022-08-05T17:37:27.268Z,42.29
2022-08-05T17:40:04.057Z,42.60
2022-08-05T17:42:32.412Z,42.94
2022-08-05T17:45:17.669Z,43.86
2022-08-05T17:47:52.918Z,44.43
2022-08-05T17:50:28.340Z,44.80
2022-08-05T17:53:01.605Z,45.02
2022-08-05T17:55:37.336Z,45.41
2022-08-05T17:58:06.934Z,45.42
2022-08-05T18:00:36.263Z,45.87
2022-08-05T18:03:11.399Z,46.00
2022-08-05T18:05:39.265Z,45.97
2022-08-05T18:08:06.226Z,46.37
2022-08-05T18:10:33.817Z,46.07
2022-08-05T18:13:07.717Z,45.98
2022-08-05T18:15:39.829Z,45.79
2022-08-05T18:18:11.126Z,45.32
2022-08-05T18:20:39.155Z,45.06
2022-08-05T18:23:09.029Z,45.28
2022-08-05T18:25:39.730Z,45.05
2022-08-05T18:28:16.258Z,45.20
2022-08-05T18:30:50.925Z,45.09
2022-08-05T18:33:24.049Z,45.60
2022-08-05T18:36:03.570Z,46.20
2022-08-05T18:38:36.345Z,46.27
2022-08-05T18:41:57.704Z,47.10
2022-08-05T18:43:56.543Z,47.67
2022-08-05T18:46:25.934Z,48.06
2022-08-05T18:48:56.035Z,47.99
2022-08-05T18:52:04.189Z,48.23
2022-08-05T18:54:41.295Z,48.30
2022-08-05T18:57:15.285Z,48.80
2022-08-05T19:00:02.353Z,48.89
2022-08-05T19:02:33.482Z,49.24
2022-08-05T19:06:05.512Z,49.75
2022-08-05T19:07:50.731Z,49.86
2022-08-05T19:10:17.901Z,50.02
2022-08-05T19:12:46.204Z,49.37
2022-08-05T19:15:56.788Z,49.29
2022-08-05T19:18:10.193Z,49.28
2022-08-05T19:20:41.841Z,49.33
2022-08-05T19:24:04.208Z,48.99
2022-08-05T19:26:02.223Z,48.83
2022-08-05T19:28:31.042Z,48.02
2022-08-05T19:31:01.152Z,48.18
2022-08-05T19:33:35.993Z,47.90
2022-08-05T19:36:07.131Z,47.92
2022-08-05T19:38:36.358Z,47.86
2022-08-05T19:41:07.303Z,47.64
2022-08-05T19:46:29.171Z,47.38
2022-08-05T19:49:02.060Z,47.01
2022-08-05T19:52:05.861Z,46.97
2022-08-05T19:54:26.938Z,47.16
2022-08-05T19:56:58.962Z,47.00
2022-08-05T19:59:53.995Z,46.18
2022-08-05T20:02:17.687Z,45.45
2022-08-05T20:04:46.068Z,45.01
2022-08-05T20:07:13.753Z,44.69
2022-08-05T20:09:54.788Z,44.76
2022-08-05T20:12:24.590Z,44.70
2022-08-05T20:14:59.552Z,45.25
2022-08-05T20:17:26.382Z,45.38
2022-08-05T20:19:57.073Z,45.40
2022-08-05T20:22:27.273Z,45.60
2022-08-05T20:24:54.931Z,46.17
2022-08-05T20:27:26.820Z,46.60
2022-08-05T20:29:57.771Z,46.84
2022-08-05T20:32:26.122Z,46.42
2022-08-05T20:34:53.155Z,46.89
2022-08-05T20:38:04.658Z,47.15
2022-08-05T20:40:10.217Z,47.42
2022-08-05T20:42:37.703Z,47.46
2022-08-05T20:45:06.585Z,47.70
2022-08-05T20:47:33.495Z,47.83
2022-08-05T20:50:11.416Z,48.17
2022-08-05T20:52:39.403Z,48.32
2022-08-05T20:55:54.881Z,47.97
2022-08-05T20:57:56.004Z,47.90
2022-08-05T21:00:49.728Z,48.20
2022-08-05T21:03:16.838Z,47.94
2022-08-05T21:05:53.752Z,48.16
2022-08-05T21:08:35.870Z,48.38
2022-08-05T21:11:51.649Z,48.43
2022-08-05T21:14:00.644Z,48.01
2022-08-05T21:16:38.492Z,48.50
2022-08-05T21:19:05.776Z,48.51
2022-08-05T21:21:39.716Z,48.43
2022-08-05T21:24:12.533Z,48.40
2022-08-05T21:26:41.332Z,48.38
2022-08-05T21:29:09.978Z,48.20
2022-08-05T21:31:41.466Z,48.30
2022-08-05T21:34:10.583Z,48.37
2022-08-05T21:36:38.005Z,48.30
2022-08-05T21:39:05.005Z,48.23
2022-08-05T21:41:35.702Z,48.70
2022-08-05T21:44:05.391Z,48.80
2022-08-05T21:46:34.426Z,48.86
2022-08-05T21:49:03.037Z,48.87
2022-08-05T21:52:22.459Z,48.89
2022-08-05T21:54:28.126Z,48.97
2022-08-05T21:57:29.644Z,48.72
2022-08-05T22:00:02.035Z,48.72
2022-08-05T22:02:39.824Z,48.90
2022-08-05T22:05:09.225Z,49.05
2022-08-05T22:07:39.864Z,49.37
2022-08-05T22:10:27.105Z,49.29
2022-08-05T22:12:59.073Z,49.10
2022-08-05T22:16:01.396Z,49.20
2022-08-05T22:18:25.721Z,49.42
2022-08-05T22:20:52.857Z,49.61
2022-08-05T22:24:00.926Z,49.49
2022-08-05T22:26:49.921Z,49.44
2022-08-05T22:29:17.654Z,49.74
2022-08-05T22:31:45.928Z,49.74
2022-08-05T22:34:28.237Z,49.93
2022-08-05T22:36:56.687Z,50.07
2022-08-05T22:39:29.794Z,49.90
2022-08-05T22:42:09.233Z,50.22
2022-08-05T22:44:38.999Z,50.43
2022-08-05T22:47:06.676Z,50.58
2022-08-05T22:50:20.400Z,50.70
2022-08-05T22:52:32.237Z,50.76
2022-08-05T22:55:01.757Z,51.08
2022-08-05T22:57:36.187Z,51.27
2022-08-05T23:00:11.349Z,51.78
2022-08-05T23:02:46.853Z,51.80
2022-08-05T23:05:14.868Z,51.81
2022-08-05T23:07:45.260Z,51.85
2022-08-05T23:10:19.533Z,51.90
2022-08-05T23:12:47.611Z,52.22
2022-08-05T23:15:18.874Z,52.45
2022-08-05T23:18:01.435Z,52.40
2022-08-05T23:20:30.158Z,52.63
2022-08-05T23:22:58.561Z,52.53
2022-08-05T23:25:52.099Z,52.63
2022-08-05T23:28:12.722Z,53.13
2022-08-05T23:30:43.455Z,53.27
2022-08-05T23:33:16.008Z,53.64
2022-08-05T23:35:49.195Z,53.60
2022-08-05T23:38:18.986Z,53.70
2022-08-05T23:40:50.147Z,53.84
2022-08-05T23:43:25.648Z,54.29
2022-08-05T23:46:20.185Z,54.18
2022-08-05T23:49:00.346Z,54.40
2022-08-05T23:51:52.485Z,54.60
2022-08-05T23:54:29.992Z,54.54
2022-08-05T23:57:03.742Z,54.61
2022-08-05T23:59:37.604Z,54.52
